Corpus Christi Jet Center

SKYE FBO - AIRPORT SERVICES
McCampbell-Porter Airport KTFP
Call Us 24/7: (361) 758-2000
KTFP - McCampbell-Porter Airport
Updated: Sat, 15-Dec-2018 5:55pm PST
Clear
Clear
 Wind from NNW
Wind: NNW 5 mph , 7 km/h
Temperature: 54°F , 12°C
Dew Point: 32°F , 0°C
Humidity: 44%
Barometer: 30.23 inHg , 1023.7 hPa
Clouds: Clear
Visibility: 10 miles , 16 km
2018/12/16 01:55 KTFP 160155Z AUTO 33004KT 10SM CLR 12/00 A3023 RMK AO2 T01190000 PNO

Location

3141 FM 3512
Aransas Pass, TX 78336-9728
361-758-2000
2 miles N of Ingleside, TX
Only 15 min from downtown Corpus Christi 2 miles N of Ingleside, Texas and only 15 minutes from downtown Corpus Christi, Texas

(click to enlarge)

Map


View Larger Map

Skyview Aviation BBB Business Review

Call Us: 361-758-2000

or send us a message

*please use contact form for feedback only. ALL requests must be made by phone.